LFLL/LYS METAR and TAF weather

Enter ICAO airport designator
Station Type Date Time Source
LFLL METAR 2024/06/16 09:30 UTC NOAA

LFLL 160930Z 20007KT 170V230 CAVOK 20/10 Q1013 NOSIG


Station Type Date Time Source
LFLL Decoded METAR 2024/06/16 09:30 UTC NOAA

Lyon / Satolas, France (LFLL) 45-44N 005-05E 240M
Jun 16, 2024 - 05:30 AM EDT / 2024.06.16 0930 UTC
Wind: from the SSW (200 degrees) at 8 MPH (7 KT) (direction variable):0
Visibility: greater than 7 mile(s):0
Temperature: 68 F (20 C)
Dew Point: 50 F (10 C)
Relative Humidity: 52%
Pressure (altimeter): 29.91 in. Hg (1013 hPa)
ob: LFLL 160930Z 20007KT 170V230 CAVOK 20/10 Q1013 NOSIG
cycle: 9

Station Type Date Time Source
LFLL TAF 2024/06/16 06:21 UTC NOAA